createdAt,value
2018-02-27T00:00:14.386Z,-7.35
2018-02-27T00:02:46.765Z,-7.34
2018-02-27T00:05:15.336Z,-7.39
2018-02-27T00:07:44.608Z,-7.35
2018-02-27T00:10:13.338Z,-7.37
2018-02-27T00:12:41.907Z,-7.37
2018-02-27T00:15:10.880Z,-7.39
2018-02-27T00:17:40.396Z,-7.42
2018-02-27T00:20:08.882Z,-7.46
2018-02-27T00:22:40.703Z,-7.52
2018-02-27T00:25:09.638Z,-7.57
2018-02-27T00:27:38.283Z,-7.59
2018-02-27T00:30:08.061Z,-7.63
2018-02-27T00:32:41.137Z,-7.57
2018-02-27T00:35:25.646Z,-7.65
2018-02-27T00:37:54.143Z,-7.72
2018-02-27T00:40:23.049Z,-7.78
2018-02-27T00:42:55.920Z,-7.82
2018-02-27T00:45:25.125Z,-7.84
2018-02-27T00:47:58.656Z,-7.87
2018-02-27T00:50:34.501Z,-7.86
2018-02-27T00:53:05.904Z,-7.92
2018-02-27T00:55:40.979Z,-8.00
2018-02-27T00:58:11.026Z,-7.99
2018-02-27T01:00:43.695Z,-8.02
2018-02-27T01:03:15.851Z,-8.00
2018-02-27T01:05:45.943Z,-8.06
2018-02-27T01:08:14.546Z,-8.07
2018-02-27T01:10:43.019Z,-8.10
2018-02-27T01:13:17.083Z,-8.12
2018-02-27T01:15:48.616Z,-8.13
2018-02-27T01:18:23.961Z,-8.22
2018-02-27T01:20:52.950Z,-8.27
2018-02-27T01:23:23.175Z,-8.31
2018-02-27T01:25:57.452Z,-8.28
2018-02-27T01:28:31.591Z,-8.30
2018-02-27T01:31:09.512Z,-8.36
2018-02-27T01:33:42.167Z,-8.40
2018-02-27T01:36:11.936Z,-8.45
2018-02-27T01:38:53.778Z,-8.44
2018-02-27T01:41:22.638Z,-8.55
2018-02-27T01:43:58.992Z,-8.57
2018-02-27T01:46:29.895Z,-8.63
2018-02-27T01:51:41.072Z,-8.68
2018-02-27T01:54:11.159Z,-8.68
2018-02-27T01:56:40.262Z,-8.72
2018-02-27T01:59:09.302Z,-8.73
2018-02-27T02:01:40.240Z,-8.73
2018-02-27T02:04:09.847Z,-8.79
2018-02-27T02:06:38.383Z,-8.80
2018-02-27T02:09:07.071Z,-8.82
2018-02-27T02:11:38.214Z,-8.80
2018-02-27T02:14:08.836Z,-8.85
2018-02-27T02:16:42.156Z,-8.96
2018-02-27T02:19:12.277Z,-8.85
2018-02-27T02:21:50.674Z,-8.86
2018-02-27T02:24:25.699Z,-8.90
2018-02-27T02:27:04.614Z,-8.87
2018-02-27T02:29:34.350Z,-8.95
2018-02-27T02:32:19.314Z,-8.91
2018-02-27T02:34:51.983Z,-8.94
2018-02-27T02:40:09.948Z,-8.93
2018-02-27T02:42:38.710Z,-8.96
2018-02-27T02:45:22.574Z,-8.98
2018-02-27T02:47:51.562Z,-8.91
2018-02-27T02:50:20.459Z,-8.89
2018-02-27T02:52:49.467Z,-8.89
2018-02-27T02:55:18.097Z,-8.89
2018-02-27T02:57:47.706Z,-8.93
2018-02-27T03:00:21.449Z,-8.86
2018-02-27T03:02:50.197Z,-8.84
2018-02-27T03:05:23.858Z,-8.88
2018-02-27T03:07:52.749Z,-8.95
2018-02-27T03:10:29.300Z,-8.98
2018-02-27T03:12:57.781Z,-9.00
2018-02-27T03:15:26.503Z,-9.04
2018-02-27T03:17:55.565Z,-9.05
2018-02-27T03:20:24.965Z,-9.03
2018-02-27T03:23:06.963Z,-9.04
2018-02-27T03:25:45.340Z,-9.08
2018-02-27T03:28:15.970Z,-9.08
2018-02-27T03:30:57.054Z,-9.07
2018-02-27T03:33:29.216Z,-9.10
2018-02-27T03:36:05.533Z,-9.10
2018-02-27T03:38:37.361Z,-9.10
2018-02-27T03:41:33.566Z,-9.11
2018-02-27T03:44:13.735Z,-9.17
2018-02-27T03:49:32.640Z,-9.25
2018-02-27T03:52:05.193Z,-9.29
2018-02-27T03:55:02.324Z,-9.21
2018-02-27T03:57:32.669Z,-9.19
2018-02-27T04:00:02.915Z,-9.23
2018-02-27T04:02:48.278Z,-9.26
2018-02-27T04:14:28.488Z,-10.10
2018-02-27T04:16:56.904Z,-10.14
2018-02-27T04:19:25.347Z,-10.21
2018-02-27T04:21:53.789Z,-10.23
2018-02-27T04:24:22.199Z,-10.29
2018-02-27T04:26:50.651Z,-10.36
2018-02-27T04:29:19.138Z,-10.49
2018-02-27T04:31:47.554Z,-10.46
2018-02-27T04:34:15.964Z,-10.41
2018-02-27T04:36:44.344Z,-10.44
2018-02-27T04:39:12.729Z,-10.43
2018-02-27T04:41:41.221Z,-10.43
2018-02-27T04:44:09.597Z,-10.44
2018-02-27T04:46:38.006Z,-10.49
2018-02-27T04:49:06.447Z,-10.57
2018-02-27T04:51:34.953Z,-10.63
2018-02-27T04:54:03.347Z,-10.72
2018-02-27T04:56:31.811Z,-10.73
2018-02-27T04:59:00.178Z,-10.78
2018-02-27T05:01:28.592Z,-10.84
2018-02-27T05:03:56.992Z,-10.80
2018-02-27T05:06:25.373Z,-10.89
2018-02-27T05:08:54.547Z,-10.94
2018-02-27T05:11:22.986Z,-10.98
2018-02-27T05:13:51.389Z,-10.99
2018-02-27T05:16:19.830Z,-10.93
2018-02-27T05:18:48.225Z,-10.94
2018-02-27T05:21:16.627Z,-10.95
2018-02-27T05:23:45.085Z,-10.99
2018-02-27T05:26:13.452Z,-10.98
2018-02-27T05:28:41.844Z,-10.99
2018-02-27T05:31:10.226Z,-11.00
2018-02-27T05:33:38.661Z,-11.06
2018-02-27T05:36:07.034Z,-11.04
2018-02-27T05:38:36.187Z,-11.04
2018-02-27T05:41:04.595Z,-11.03
2018-02-27T05:43:33.025Z,-11.08
2018-02-27T05:46:01.519Z,-11.03
2018-02-27T05:48:29.898Z,-11.12
2018-02-27T05:50:58.293Z,-11.08
2018-02-27T05:53:26.757Z,-11.04
2018-02-27T05:55:55.154Z,-11.02
2018-02-27T05:58:23.605Z,-11.03
2018-02-27T06:00:51.977Z,-11.15
2018-02-27T06:03:20.384Z,-11.22
2018-02-27T06:05:49.040Z,-11.27
2018-02-27T06:08:17.461Z,-11.25
2018-02-27T06:10:45.904Z,-11.21
2018-02-27T06:13:14.321Z,-11.16
2018-02-27T06:15:42.769Z,-11.22
2018-02-27T06:18:11.184Z,-11.06
2018-02-27T06:20:39.586Z,-10.98
2018-02-27T06:23:07.968Z,-10.85
2018-02-27T06:25:36.384Z,-10.79
2018-02-27T06:28:04.786Z,-10.66
2018-02-27T06:30:33.170Z,-10.57
2018-02-27T06:33:01.629Z,-10.43
2018-02-27T06:35:30.030Z,-10.25
2018-02-27T06:37:58.424Z,-10.04
2018-02-27T06:40:26.846Z,-9.97
2018-02-27T06:42:55.213Z,-9.90
2018-02-27T06:45:24.436Z,-9.78
2018-02-27T06:47:52.937Z,-9.70
2018-02-27T06:50:21.301Z,-9.60
2018-02-27T06:52:49.678Z,-9.48
2018-02-27T06:55:18.105Z,-9.28
2018-02-27T06:57:46.473Z,-9.21
2018-02-27T07:00:14.854Z,-9.12
2018-02-27T07:02:43.241Z,-9.11
2018-02-27T07:05:13.214Z,-9.09
2018-02-27T07:07:41.638Z,-9.05
2018-02-27T07:10:10.014Z,-9.04
2018-02-27T07:12:39.906Z,-9.10
2018-02-27T07:15:08.303Z,-9.04
2018-02-27T07:17:36.712Z,-9.16
2018-02-27T07:20:05.939Z,-9.10
2018-02-27T07:22:34.358Z,-9.04
2018-02-27T07:25:02.737Z,-8.92
2018-02-27T07:27:31.143Z,-8.65
2018-02-27T07:30:00.289Z,-8.73
2018-02-27T07:32:28.783Z,-8.44
2018-02-27T07:34:57.170Z,-8.41
2018-02-27T07:37:25.601Z,-7.84
2018-02-27T07:39:54.010Z,-7.99
2018-02-27T07:42:22.410Z,-7.98
2018-02-27T07:44:50.795Z,-7.87
2018-02-27T07:47:19.236Z,-7.87
2018-02-27T07:49:47.606Z,-7.53
2018-02-27T07:52:16.006Z,-7.26
2018-02-27T07:54:44.409Z,-7.09
2018-02-27T07:57:12.798Z,-6.69
2018-02-27T07:59:41.995Z,-6.22
2018-02-27T08:02:11.128Z,-5.83
2018-02-27T08:04:39.512Z,-5.36
2018-02-27T08:07:07.909Z,-4.80
2018-02-27T08:09:36.287Z,-4.91
2018-02-27T08:12:04.665Z,-5.20
2018-02-27T08:14:33.075Z,-5.21
2018-02-27T08:17:01.439Z,-4.38
2018-02-27T08:19:29.821Z,-4.70
2018-02-27T08:21:58.220Z,-4.32
2018-02-27T08:24:27.400Z,-4.44
2018-02-27T08:29:53.027Z,-4.00
2018-02-27T08:32:21.429Z,-4.40
2018-02-27T08:34:50.589Z,-4.59
2018-02-27T08:37:19.051Z,-4.86
2018-02-27T08:39:47.443Z,-4.44
2018-02-27T08:42:15.841Z,-4.35
2018-02-27T08:44:44.289Z,-3.69
2018-02-27T08:47:12.765Z,-4.28
2018-02-27T08:49:41.196Z,-4.26
2018-02-27T08:52:09.576Z,-4.69
2018-02-27T08:54:38.743Z,-4.70
2018-02-27T08:57:07.149Z,-4.55
2018-02-27T08:59:35.528Z,-4.43
2018-02-27T09:02:03.947Z,-4.07
2018-02-27T09:04:32.323Z,-3.80
2018-02-27T09:07:00.702Z,-3.91
2018-02-27T09:09:29.100Z,-3.71
2018-02-27T09:11:57.581Z,-4.29
2018-02-27T09:14:25.965Z,-4.11
2018-02-27T09:16:54.339Z,-4.09
2018-02-27T09:19:22.809Z,-4.69
2018-02-27T09:21:51.219Z,-4.86
2018-02-27T09:24:19.609Z,-3.89
2018-02-27T09:26:48.035Z,-3.49
2018-02-27T09:29:26.988Z,-2.70
2018-02-27T09:31:55.390Z,2.73
2018-02-27T09:34:23.754Z,5.01
2018-02-27T09:36:52.183Z,3.41
2018-02-27T09:39:21.397Z,5.64
2018-02-27T09:41:49.759Z,8.67
2018-02-27T09:44:18.951Z,7.70
2018-02-27T09:46:48.087Z,7.04
2018-02-27T09:49:16.749Z,8.20
2018-02-27T09:51:45.139Z,6.44
2018-02-27T09:54:13.513Z,5.10
2018-02-27T09:56:42.028Z,4.82
2018-02-27T09:59:10.405Z,6.25
2018-02-27T10:01:38.822Z,5.50
2018-02-27T10:04:07.207Z,5.31
2018-02-27T10:06:36.337Z,3.30
2018-02-27T10:09:04.811Z,3.15
2018-02-27T10:11:33.391Z,1.64
2018-02-27T10:14:01.836Z,3.35
2018-02-27T10:16:31.025Z,2.60
2018-02-27T10:18:59.413Z,2.67
2018-02-27T10:21:28.572Z,2.40
2018-02-27T10:23:57.025Z,1.84
2018-02-27T10:26:25.500Z,2.88
2018-02-27T10:28:53.870Z,4.55
2018-02-27T10:31:23.190Z,5.68
2018-02-27T10:33:51.569Z,4.73
2018-02-27T10:36:20.041Z,2.58
2018-02-27T10:38:48.407Z,1.39
2018-02-27T10:41:16.795Z,1.34
2018-02-27T10:43:45.225Z,0.47
2018-02-27T10:46:13.650Z,-0.37
2018-02-27T10:48:42.022Z,-1.69
2018-02-27T10:51:11.185Z,-1.50
2018-02-27T10:56:37.437Z,-0.60
2018-02-27T10:59:05.856Z,-0.78
2018-02-27T11:01:34.225Z,-1.09
2018-02-27T11:04:02.647Z,-1.51
2018-02-27T11:06:31.046Z,-1.16
2018-02-27T11:08:59.426Z,-1.82
2018-02-27T11:11:27.830Z,-1.33
2018-02-27T11:13:57.038Z,-1.08
2018-02-27T11:16:25.478Z,-1.43
2018-02-27T11:18:53.866Z,-1.19
2018-02-27T11:21:22.276Z,-1.49
2018-02-27T11:23:50.687Z,-1.39
2018-02-27T11:26:19.080Z,-1.29
2018-02-27T11:28:47.470Z,-1.57
2018-02-27T11:31:15.886Z,-1.03
2018-02-27T11:33:44.281Z,-1.37
2018-02-27T11:36:12.679Z,-0.84
2018-02-27T11:38:41.093Z,-1.08
2018-02-27T11:41:09.470Z,-1.77
2018-02-27T11:43:37.884Z,-2.05
2018-02-27T11:46:06.260Z,-2.40
2018-02-27T11:48:35.412Z,-2.27
2018-02-27T11:51:03.808Z,-1.87
2018-02-27T11:53:32.224Z,-1.69
2018-02-27T11:56:00.629Z,-1.30
2018-02-27T11:58:29.932Z,-0.70
2018-02-27T12:00:58.333Z,-0.13
2018-02-27T12:03:26.705Z,-0.56
2018-02-27T12:05:55.556Z,-0.71
2018-02-27T12:08:24.073Z,-1.36
2018-02-27T12:10:52.452Z,-2.13
2018-02-27T12:13:20.848Z,-1.94
2018-02-27T12:15:49.267Z,-1.67
2018-02-27T12:18:17.659Z,-2.29
2018-02-27T12:20:46.053Z,-2.12
2018-02-27T12:23:14.550Z,-2.23
2018-02-27T12:25:42.939Z,-2.24
2018-02-27T12:28:11.325Z,-1.80
2018-02-27T12:30:39.709Z,-1.23
2018-02-27T12:33:08.081Z,-1.33
2018-02-27T12:35:36.470Z,-0.99
2018-02-27T12:38:04.859Z,-0.94
2018-02-27T12:40:34.048Z,-0.68
2018-02-27T12:43:03.241Z,-0.99
2018-02-27T12:45:31.620Z,-0.42
2018-02-27T12:47:59.985Z,-0.28
2018-02-27T12:50:28.460Z,-0.47
2018-02-27T12:52:56.832Z,-0.36
2018-02-27T12:55:25.239Z,0.03
2018-02-27T12:57:54.367Z,0.35
2018-02-27T13:00:22.730Z,-0.33
2018-02-27T13:02:51.949Z,-0.80
2018-02-27T13:05:20.314Z,-0.35
2018-02-27T13:07:49.130Z,-0.91
2018-02-27T13:10:17.514Z,-0.82
2018-02-27T13:12:45.914Z,-0.72
2018-02-27T13:15:14.275Z,-0.48
2018-02-27T13:17:42.679Z,-0.68
2018-02-27T13:20:11.069Z,-0.65
2018-02-27T13:22:39.482Z,-0.16
2018-02-27T13:25:07.900Z,-0.24
2018-02-27T13:27:36.259Z,0.08
2018-02-27T13:30:04.618Z,-0.07
2018-02-27T13:32:33.008Z,0.15
2018-02-27T13:35:01.375Z,0.16
2018-02-27T13:37:29.773Z,-0.16
2018-02-27T13:40:02.262Z,-0.22
2018-02-27T13:42:30.658Z,-0.69
2018-02-27T13:44:59.035Z,-0.27
2018-02-27T13:47:27.424Z,-1.89
2018-02-27T13:49:55.785Z,-1.21
2018-02-27T13:52:24.160Z,-0.91
2018-02-27T13:54:52.582Z,-0.64
2018-02-27T13:57:21.716Z,-0.61
2018-02-27T13:59:50.117Z,-0.89
2018-02-27T14:02:18.492Z,-0.75
2018-02-27T14:04:46.874Z,-1.41
2018-02-27T14:07:15.274Z,-1.50
2018-02-27T14:09:43.666Z,-0.44
2018-02-27T14:12:12.815Z,-0.11
2018-02-27T14:14:41.228Z,-0.19
2018-02-27T14:17:09.600Z,0.01
2018-02-27T14:19:38.025Z,0.23
2018-02-27T14:22:06.385Z,0.47
2018-02-27T14:24:34.772Z,0.17
2018-02-27T14:27:03.158Z,-0.51
2018-02-27T14:29:31.534Z,0.19
2018-02-27T14:31:59.926Z,0.30
2018-02-27T14:34:28.301Z,0.68
2018-02-27T14:36:56.658Z,0.41
2018-02-27T14:39:25.044Z,0.15
2018-02-27T14:41:53.614Z,0.47
2018-02-27T14:44:22.768Z,-0.27
2018-02-27T14:46:51.158Z,-0.23
2018-02-27T14:49:19.587Z,-1.17
2018-02-27T14:51:47.974Z,-1.76
2018-02-27T14:54:16.339Z,-1.88
2018-02-27T14:56:44.823Z,-1.47
2018-02-27T14:59:13.221Z,-1.13
2018-02-27T15:01:41.714Z,-1.23
2018-02-27T15:04:10.101Z,-1.31
2018-02-27T15:06:38.489Z,-1.28
2018-02-27T15:09:06.896Z,-1.44
2018-02-27T15:11:36.021Z,-1.59
2018-02-27T15:14:04.445Z,-1.50
2018-02-27T15:16:32.817Z,-1.57
2018-02-27T15:19:01.270Z,-1.33
2018-02-27T15:21:29.671Z,-1.60
2018-02-27T15:23:58.083Z,-1.50
2018-02-27T15:29:01.622Z,-1.51
2018-02-27T15:31:30.040Z,-1.65
2018-02-27T15:33:58.457Z,-2.08
2018-02-27T15:36:27.777Z,-2.30
2018-02-27T15:38:56.239Z,-1.77
2018-02-27T15:41:24.650Z,-2.28
2018-02-27T15:43:53.082Z,-2.07
2018-02-27T15:46:21.493Z,-2.29
2018-02-27T15:48:49.962Z,-2.88
2018-02-27T15:51:19.270Z,-3.11
2018-02-27T15:53:47.664Z,-3.10
2018-02-27T15:56:16.133Z,-3.26
2018-02-27T15:58:44.542Z,-3.24
2018-02-27T16:01:13.002Z,-3.33
2018-02-27T16:03:41.395Z,-3.26
2018-02-27T16:06:09.831Z,-3.32
2018-02-27T16:08:39.052Z,-3.38
2018-02-27T16:11:07.475Z,-3.41
2018-02-27T16:13:35.916Z,-3.54
2018-02-27T16:16:04.312Z,-3.56
2018-02-27T16:18:32.720Z,-3.64
2018-02-27T16:21:01.228Z,-3.69
2018-02-27T16:23:30.402Z,-3.78
2018-02-27T16:25:58.863Z,-3.71
2018-02-27T16:28:27.267Z,-3.72
2018-02-27T16:30:55.705Z,-3.79
2018-02-27T16:33:24.210Z,-3.84
2018-02-27T16:35:52.676Z,-3.77
2018-02-27T16:38:21.086Z,-3.80
2018-02-27T16:40:49.514Z,-3.83
2018-02-27T16:43:18.052Z,-3.82
2018-02-27T16:45:46.553Z,-3.86
2018-02-27T16:48:15.734Z,-3.95
2018-02-27T16:50:44.168Z,-3.96
2018-02-27T16:53:12.698Z,-4.02
2018-02-27T16:55:41.874Z,-4.06
2018-02-27T16:58:10.274Z,-4.07
2018-02-27T17:00:39.466Z,-4.08
2018-02-27T17:03:07.940Z,-4.09
2018-02-27T17:05:36.364Z,-4.06
2018-02-27T17:08:04.768Z,-4.04
2018-02-27T17:10:33.197Z,-4.02
2018-02-27T17:13:02.440Z,-4.04
2018-02-27T17:15:31.830Z,-4.06
2018-02-27T17:18:00.270Z,-4.02
2018-02-27T17:20:28.702Z,-4.04
2018-02-27T17:22:57.107Z,-4.06
2018-02-27T17:25:25.531Z,-4.12
2018-02-27T17:27:53.999Z,-4.18
2018-02-27T17:30:23.181Z,-4.17
2018-02-27T17:32:51.598Z,-4.20
2018-02-27T17:35:20.054Z,-4.18
2018-02-27T17:37:48.656Z,-4.18
2018-02-27T17:40:17.070Z,-4.09
2018-02-27T17:42:45.482Z,-4.05
2018-02-27T17:45:13.963Z,-4.01
2018-02-27T17:47:42.423Z,-4.05
2018-02-27T17:50:10.895Z,-4.14
2018-02-27T17:52:39.390Z,-4.16
2018-02-27T17:55:07.819Z,-4.15
2018-02-27T17:57:36.220Z,-4.20
2018-02-27T18:00:04.713Z,-4.26
2018-02-27T18:02:33.154Z,-4.31
2018-02-27T18:05:01.576Z,-4.31
2018-02-27T18:07:29.999Z,-4.41
2018-02-27T18:09:59.254Z,-4.40
2018-02-27T18:12:27.751Z,-4.38
2018-02-27T18:14:56.166Z,-4.37
2018-02-27T18:17:25.407Z,-4.43
2018-02-27T18:19:53.831Z,-4.42
2018-02-27T18:22:26.062Z,-4.45
2018-02-27T18:24:54.562Z,-4.49
2018-02-27T18:27:22.983Z,-4.51
2018-02-27T18:29:51.432Z,-4.47
2018-02-27T18:32:20.038Z,-4.50
2018-02-27T18:34:48.493Z,-4.57
2018-02-27T18:37:16.903Z,-4.56
2018-02-27T18:39:45.438Z,-4.57
2018-02-27T18:42:13.936Z,-4.63
2018-02-27T18:44:42.355Z,-4.60
2018-02-27T18:47:10.805Z,-4.69
2018-02-27T18:49:39.967Z,-4.75
2018-02-27T18:52:08.467Z,-4.77
2018-02-27T18:54:36.899Z,-4.82
2018-02-27T18:57:05.304Z,-4.84
2018-02-27T18:59:33.732Z,-4.88
2018-02-27T19:02:02.958Z,-4.88
2018-02-27T19:04:31.367Z,-4.84
2018-02-27T19:06:59.794Z,-4.84
2018-02-27T19:09:28.265Z,-4.76
2018-02-27T19:11:57.465Z,-4.67
2018-02-27T19:14:26.684Z,-4.64
2018-02-27T19:16:55.857Z,-4.61
2018-02-27T19:19:25.049Z,-4.49
2018-02-27T19:21:53.537Z,-4.52
2018-02-27T19:24:22.716Z,-4.55
2018-02-27T19:26:51.263Z,-4.50
2018-02-27T19:29:19.658Z,-4.48
2018-02-27T19:31:48.131Z,-4.46
2018-02-27T19:34:16.618Z,-4.44
2018-02-27T19:36:45.057Z,-4.45
2018-02-27T19:39:13.905Z,-4.52
2018-02-27T19:41:42.322Z,-4.57
2018-02-27T19:44:10.757Z,-4.55
2018-02-27T19:46:39.924Z,-4.60
2018-02-27T19:49:08.339Z,-4.71
2018-02-27T19:51:37.556Z,-4.81
2018-02-27T19:54:06.731Z,-4.79
2018-02-27T19:56:35.146Z,-4.74
2018-02-27T19:59:03.566Z,-4.75
2018-02-27T20:01:32.707Z,-4.87
2018-02-27T20:04:01.890Z,-4.96
2018-02-27T20:06:30.336Z,-4.92
2018-02-27T20:08:58.743Z,-5.05
2018-02-27T20:11:27.171Z,-5.14
2018-02-27T20:13:55.678Z,-5.25
2018-02-27T20:16:24.126Z,-5.26
2018-02-27T20:18:52.539Z,-5.22
2018-02-27T20:21:20.967Z,-5.25
2018-02-27T20:23:55.543Z,-5.23
2018-02-27T20:26:23.945Z,-5.16
2018-02-27T20:31:52.318Z,-5.28
2018-02-27T20:34:20.761Z,-5.31
2018-02-27T20:36:49.179Z,-5.34
2018-02-27T20:39:23.102Z,-5.34
2018-02-27T20:41:52.303Z,-5.44
2018-02-27T20:44:20.700Z,-5.45
2018-02-27T20:46:49.090Z,-5.34
2018-02-27T20:49:18.281Z,-5.33
2018-02-27T20:51:47.447Z,-5.28
2018-02-27T20:54:15.825Z,-5.43
2018-02-27T20:56:44.290Z,-5.51
2018-02-27T20:59:13.380Z,-5.70
2018-02-27T21:01:41.780Z,-5.76
2018-02-27T21:04:10.158Z,-5.83
2018-02-27T21:06:38.546Z,-5.83
2018-02-27T21:09:06.954Z,-5.76
2018-02-27T21:11:36.089Z,-5.80
2018-02-27T21:14:04.516Z,-5.76
2018-02-27T21:16:33.035Z,-5.72
2018-02-27T21:19:01.470Z,-5.74
2018-02-27T21:21:29.886Z,-5.79
2018-02-27T21:23:58.286Z,-5.71
2018-02-27T21:26:26.684Z,-5.73
2018-02-27T21:28:55.074Z,-5.79
2018-02-27T21:31:23.476Z,-5.86
2018-02-27T21:33:52.649Z,-5.90
2018-02-27T21:36:21.058Z,-5.92
2018-02-27T21:38:50.270Z,-5.92
2018-02-27T21:41:19.410Z,-5.97
2018-02-27T21:43:47.789Z,-5.89
2018-02-27T21:46:16.199Z,-5.96
2018-02-27T21:48:45.371Z,-6.01
2018-02-27T21:51:13.815Z,-6.04
2018-02-27T21:53:42.270Z,-6.19
2018-02-27T21:56:11.478Z,-6.30
2018-02-27T21:58:39.883Z,-6.34
2018-02-27T22:01:08.313Z,-6.32
2018-02-27T22:03:36.717Z,-6.49
2018-02-27T22:06:05.094Z,-6.49
2018-02-27T22:08:34.227Z,-6.48
2018-02-27T22:11:02.708Z,-6.70
2018-02-27T22:13:31.089Z,-6.75
2018-02-27T22:15:59.557Z,-6.80
2018-02-27T22:18:27.970Z,-6.89
2018-02-27T22:20:56.343Z,-6.84
2018-02-27T22:23:24.752Z,-6.90
2018-02-27T22:25:53.164Z,-6.94
2018-02-27T22:28:21.570Z,-7.08
2018-02-27T22:30:49.954Z,-7.11
2018-02-27T22:33:18.488Z,-7.14
2018-02-27T22:35:47.649Z,-7.26
2018-02-27T22:38:16.114Z,-7.31
2018-02-27T22:40:44.793Z,-7.34
2018-02-27T22:43:13.190Z,-7.38
2018-02-27T22:45:41.589Z,-7.40
2018-02-27T22:48:10.161Z,-7.40
2018-02-27T22:50:38.547Z,-7.45
2018-02-27T22:53:06.942Z,-7.50
2018-02-27T22:55:36.238Z,-7.53
2018-02-27T22:58:05.394Z,-7.52
2018-02-27T23:00:40.351Z,-7.52
2018-02-27T23:03:08.979Z,-7.56
2018-02-27T23:05:37.386Z,-7.53
2018-02-27T23:08:05.905Z,-7.61
2018-02-27T23:10:35.245Z,-7.64
2018-02-27T23:13:04.430Z,-7.68
2018-02-27T23:15:33.636Z,-7.70
2018-02-27T23:18:04.392Z,-7.77
2018-02-27T23:20:32.992Z,-7.88
2018-02-27T23:23:01.723Z,-7.88
2018-02-27T23:25:33.608Z,-7.94
2018-02-27T23:28:05.849Z,-7.94
2018-02-27T23:30:35.124Z,-8.04
2018-02-27T23:33:14.940Z,-8.05
2018-02-27T23:35:43.534Z,-8.10
2018-02-27T23:38:11.914Z,-8.08
2018-02-27T23:40:42.142Z,-8.14
2018-02-27T23:43:10.717Z,-8.19
2018-02-27T23:45:39.239Z,-8.17
2018-02-27T23:48:08.526Z,-8.20
2018-02-27T23:50:37.685Z,-8.20
2018-02-27T23:53:06.252Z,-8.25
2018-02-27T23:55:34.741Z,-8.26
2018-02-27T23:58:03.165Z,-8.28
